sensor_id;sensor_type;location;lat;lon;timestamp;P1;durP1;ratioP1;P2;durP2;ratioP2
11568;SDS011;5840;46.894;15.542;2023-09-19T00:00:15;14.07;;;11.17;;
11568;SDS011;5840;46.894;15.542;2023-09-19T00:02:45;13.37;;;11.50;;
11568;SDS011;5840;46.894;15.542;2023-09-19T00:05:13;13.07;;;10.50;;
11568;SDS011;5840;46.894;15.542;2023-09-19T00:07:40;12.20;;;10.70;;
11568;SDS011;5840;46.894;15.542;2023-09-19T00:10:07;13.23;;;10.67;;
11568;SDS011;5840;46.894;15.542;2023-09-19T00:12:36;14.40;;;10.90;;
11568;SDS011;5840;46.894;15.542;2023-09-19T00:15:03;12.20;;;10.97;;
11568;SDS011;5840;46.894;15.542;2023-09-19T00:17:31;11.23;;;10.17;;
11568;SDS011;5840;46.894;15.542;2023-09-19T00:20:01;12.83;;;9.87;;
11568;SDS011;5840;46.894;15.542;2023-09-19T00:22:32;12.47;;;9.93;;
11568;SDS011;5840;46.894;15.542;2023-09-19T00:24:59;12.93;;;10.50;;
11568;SDS011;5840;46.894;15.542;2023-09-19T00:27:27;13.93;;;10.47;;
11568;SDS011;5840;46.894;15.542;2023-09-19T00:29:54;11.27;;;10.10;;
11568;SDS011;5840;46.894;15.542;2023-09-19T00:32:21;15.00;;;9.27;;
11568;SDS011;5840;46.894;15.542;2023-09-19T00:34:48;13.47;;;10.70;;
11568;SDS011;5840;46.894;15.542;2023-09-19T00:37:17;12.13;;;9.90;;
11568;SDS011;5840;46.894;15.542;2023-09-19T00:39:43;14.33;;;10.20;;
11568;SDS011;5840;46.894;15.542;2023-09-19T00:42:17;11.87;;;9.93;;
11568;SDS011;5840;46.894;15.542;2023-09-19T00:44:46;13.40;;;10.03;;
11568;SDS011;5840;46.894;15.542;2023-09-19T00:47:16;10.60;;;9.40;;
11568;SDS011;5840;46.894;15.542;2023-09-19T00:49:43;12.77;;;10.77;;
11568;SDS011;5840;46.894;15.542;2023-09-19T00:52:14;11.87;;;9.80;;
11568;SDS011;5840;46.894;15.542;2023-09-19T00:54:46;11.90;;;9.53;;
11568;SDS011;5840;46.894;15.542;2023-09-19T00:57:13;10.10;;;8.97;;
11568;SDS011;5840;46.894;15.542;2023-09-19T00:59:44;10.07;;;9.07;;
11568;SDS011;5840;46.894;15.542;2023-09-19T01:02:13;9.73;;;8.57;;
11568;SDS011;5840;46.894;15.542;2023-09-19T01:04:41;9.57;;;8.60;;
11568;SDS011;5840;46.894;15.542;2023-09-19T01:07:08;9.10;;;8.20;;
11568;SDS011;5840;46.894;15.542;2023-09-19T01:09:35;8.70;;;7.97;;
11568;SDS011;5840;46.894;15.542;2023-09-19T01:12:05;9.97;;;8.47;;
11568;SDS011;5840;46.894;15.542;2023-09-19T01:14:37;9.27;;;8.27;;
11568;SDS011;5840;46.894;15.542;2023-09-19T01:17:14;10.30;;;9.20;;
11568;SDS011;5840;46.894;15.542;2023-09-19T01:20:03;10.97;;;9.97;;
11568;SDS011;5840;46.894;15.542;2023-09-19T01:22:48;12.07;;;11.03;;
11568;SDS011;5840;46.894;15.542;2023-09-19T01:25:33;11.47;;;10.53;;
11568;SDS011;5840;46.894;15.542;2023-09-19T01:28:29;11.50;;;10.30;;
11568;SDS011;5840;46.894;15.542;2023-09-19T01:31:03;10.60;;;9.53;;
11568;SDS011;5840;46.894;15.542;2023-09-19T01:36:29;11.70;;;10.50;;
11568;SDS011;5840;46.894;15.542;2023-09-19T01:39:00;11.20;;;10.27;;
11568;SDS011;5840;46.894;15.542;2023-09-19T01:41:38;12.70;;;11.40;;
11568;SDS011;5840;46.894;15.542;2023-09-19T01:44:21;11.27;;;10.17;;
11568;SDS011;5840;46.894;15.542;2023-09-19T01:46:52;10.57;;;9.67;;
11568;SDS011;5840;46.894;15.542;2023-09-19T01:49:31;11.40;;;10.17;;
11568;SDS011;5840;46.894;15.542;2023-09-19T01:52:05;9.87;;;8.87;;
11568;SDS011;5840;46.894;15.542;2023-09-19T01:54:40;11.60;;;10.57;;
11568;SDS011;5840;46.894;15.542;2023-09-19T01:57:14;14.80;;;12.03;;
11568;SDS011;5840;46.894;15.542;2023-09-19T01:59:48;12.50;;;11.30;;
11568;SDS011;5840;46.894;15.542;2023-09-19T02:02:22;11.73;;;10.73;;
11568;SDS011;5840;46.894;15.542;2023-09-19T02:04:51;11.37;;;10.30;;
11568;SDS011;5840;46.894;15.542;2023-09-19T02:07:18;12.20;;;10.97;;
11568;SDS011;5840;46.894;15.542;2023-09-19T02:09:46;11.67;;;10.67;;
11568;SDS011;5840;46.894;15.542;2023-09-19T02:12:13;11.47;;;10.37;;
11568;SDS011;5840;46.894;15.542;2023-09-19T02:14:40;10.60;;;9.80;;
11568;SDS011;5840;46.894;15.542;2023-09-19T02:17:07;13.47;;;10.70;;
11568;SDS011;5840;46.894;15.542;2023-09-19T02:19:37;11.70;;;10.70;;
11568;SDS011;5840;46.894;15.542;2023-09-19T02:22:06;10.90;;;10.00;;
11568;SDS011;5840;46.894;15.542;2023-09-19T02:24:35;11.43;;;10.37;;
11568;SDS011;5840;46.894;15.542;2023-09-19T02:27:02;11.20;;;9.70;;
11568;SDS011;5840;46.894;15.542;2023-09-19T02:29:31;11.17;;;10.17;;
11568;SDS011;5840;46.894;15.542;2023-09-19T02:31:59;11.40;;;10.40;;
11568;SDS011;5840;46.894;15.542;2023-09-19T02:34:27;12.30;;;9.40;;
11568;SDS011;5840;46.894;15.542;2023-09-19T02:36:56;10.70;;;9.70;;
11568;SDS011;5840;46.894;15.542;2023-09-19T02:39:23;10.43;;;9.47;;
11568;SDS011;5840;46.894;15.542;2023-09-19T02:41:50;10.73;;;9.63;;
11568;SDS011;5840;46.894;15.542;2023-09-19T02:44:17;9.47;;;8.60;;
11568;SDS011;5840;46.894;15.542;2023-09-19T02:46:45;9.70;;;8.93;;
11568;SDS011;5840;46.894;15.542;2023-09-19T02:49:12;9.07;;;8.27;;
11568;SDS011;5840;46.894;15.542;2023-09-19T02:51:39;8.50;;;7.73;;
11568;SDS011;5840;46.894;15.542;2023-09-19T02:54:08;9.27;;;8.40;;
11568;SDS011;5840;46.894;15.542;2023-09-19T02:56:35;10.67;;;9.67;;
11568;SDS011;5840;46.894;15.542;2023-09-19T02:59:02;9.90;;;8.73;;
11568;SDS011;5840;46.894;15.542;2023-09-19T03:01:30;10.43;;;9.07;;
11568;SDS011;5840;46.894;15.542;2023-09-19T03:03:58;9.33;;;8.47;;
11568;SDS011;5840;46.894;15.542;2023-09-19T03:06:25;10.13;;;9.13;;
11568;SDS011;5840;46.894;15.542;2023-09-19T03:08:52;10.00;;;9.10;;
11568;SDS011;5840;46.894;15.542;2023-09-19T03:11:22;9.53;;;8.53;;
11568;SDS011;5840;46.894;15.542;2023-09-19T03:13:53;9.03;;;8.23;;
11568;SDS011;5840;46.894;15.542;2023-09-19T03:16:20;9.20;;;8.20;;
11568;SDS011;5840;46.894;15.542;2023-09-19T03:18:48;10.23;;;9.20;;
11568;SDS011;5840;46.894;15.542;2023-09-19T03:21:15;9.47;;;8.43;;
11568;SDS011;5840;46.894;15.542;2023-09-19T03:23:42;8.70;;;7.83;;
11568;SDS011;5840;46.894;15.542;2023-09-19T03:26:11;8.57;;;7.77;;
11568;SDS011;5840;46.894;15.542;2023-09-19T03:28:42;8.97;;;8.10;;
11568;SDS011;5840;46.894;15.542;2023-09-19T03:31:11;8.67;;;7.80;;
11568;SDS011;5840;46.894;15.542;2023-09-19T03:33:38;10.90;;;7.73;;
11568;SDS011;5840;46.894;15.542;2023-09-19T03:36:05;10.70;;;8.00;;
11568;SDS011;5840;46.894;15.542;2023-09-19T03:38:32;9.87;;;8.27;;
11568;SDS011;5840;46.894;15.542;2023-09-19T03:41:00;9.20;;;8.30;;
11568;SDS011;5840;46.894;15.542;2023-09-19T03:43:27;10.30;;;7.17;;
11568;SDS011;5840;46.894;15.542;2023-09-19T03:45:55;7.43;;;6.50;;
11568;SDS011;5840;46.894;15.542;2023-09-19T03:48:22;8.83;;;6.57;;
11568;SDS011;5840;46.894;15.542;2023-09-19T03:50:49;6.77;;;6.17;;
11568;SDS011;5840;46.894;15.542;2023-09-19T03:53:17;7.83;;;5.67;;
11568;SDS011;5840;46.894;15.542;2023-09-19T03:55:44;8.80;;;5.50;;
11568;SDS011;5840;46.894;15.542;2023-09-19T03:58:12;8.10;;;5.13;;
11568;SDS011;5840;46.894;15.542;2023-09-19T04:00:39;3.97;;;3.67;;
11568;SDS011;5840;46.894;15.542;2023-09-19T04:03:07;4.13;;;3.73;;
11568;SDS011;5840;46.894;15.542;2023-09-19T04:05:43;4.23;;;3.40;;
11568;SDS011;5840;46.894;15.542;2023-09-19T04:08:11;3.43;;;3.13;;
11568;SDS011;5840;46.894;15.542;2023-09-19T04:10:40;3.80;;;3.40;;
11568;SDS011;5840;46.894;15.542;2023-09-19T04:13:08;4.30;;;3.97;;
11568;SDS011;5840;46.894;15.542;2023-09-19T04:15:35;8.10;;;4.67;;
11568;SDS011;5840;46.894;15.542;2023-09-19T04:18:03;5.20;;;4.70;;
11568;SDS011;5840;46.894;15.542;2023-09-19T04:20:32;6.30;;;4.87;;
11568;SDS011;5840;46.894;15.542;2023-09-19T04:22:59;6.73;;;5.23;;
11568;SDS011;5840;46.894;15.542;2023-09-19T04:25:26;5.03;;;4.47;;
11568;SDS011;5840;46.894;15.542;2023-09-19T04:27:53;8.33;;;4.60;;
11568;SDS011;5840;46.894;15.542;2023-09-19T04:30:20;7.77;;;4.30;;
11568;SDS011;5840;46.894;15.542;2023-09-19T04:32:47;4.50;;;4.10;;
11568;SDS011;5840;46.894;15.542;2023-09-19T04:35:16;4.87;;;4.07;;
11568;SDS011;5840;46.894;15.542;2023-09-19T04:37:44;6.13;;;4.67;;
11568;SDS011;5840;46.894;15.542;2023-09-19T04:40:13;4.97;;;4.20;;
11568;SDS011;5840;46.894;15.542;2023-09-19T04:42:42;4.63;;;3.80;;
11568;SDS011;5840;46.894;15.542;2023-09-19T04:45:10;5.47;;;4.37;;
11568;SDS011;5840;46.894;15.542;2023-09-19T04:47:37;5.43;;;4.27;;
11568;SDS011;5840;46.894;15.542;2023-09-19T04:50:05;4.67;;;4.10;;
11568;SDS011;5840;46.894;15.542;2023-09-19T04:52:37;4.40;;;3.63;;
11568;SDS011;5840;46.894;15.542;2023-09-19T04:55:08;4.50;;;4.10;;
11568;SDS011;5840;46.894;15.542;2023-09-19T04:57:35;4.40;;;4.00;;
11568;SDS011;5840;46.894;15.542;2023-09-19T05:00:04;5.13;;;4.63;;
11568;SDS011;5840;46.894;15.542;2023-09-19T05:02:37;6.53;;;4.80;;
11568;SDS011;5840;46.894;15.542;2023-09-19T05:05:05;5.43;;;4.93;;
11568;SDS011;5840;46.894;15.542;2023-09-19T05:07:33;5.27;;;4.87;;
11568;SDS011;5840;46.894;15.542;2023-09-19T05:10:00;5.93;;;4.47;;
11568;SDS011;5840;46.894;15.542;2023-09-19T05:12:32;6.40;;;4.57;;
11568;SDS011;5840;46.894;15.542;2023-09-19T05:14:59;5.70;;;4.73;;
11568;SDS011;5840;46.894;15.542;2023-09-19T05:17:28;5.43;;;4.93;;
11568;SDS011;5840;46.894;15.542;2023-09-19T05:19:55;5.43;;;4.63;;
11568;SDS011;5840;46.894;15.542;2023-09-19T05:22:22;5.63;;;4.80;;
11568;SDS011;5840;46.894;15.542;2023-09-19T05:24:49;5.57;;;4.23;;
11568;SDS011;5840;46.894;15.542;2023-09-19T05:27:18;4.90;;;4.40;;
11568;SDS011;5840;46.894;15.542;2023-09-19T05:29:47;5.13;;;4.70;;
11568;SDS011;5840;46.894;15.542;2023-09-19T05:32:15;5.77;;;5.23;;
11568;SDS011;5840;46.894;15.542;2023-09-19T05:34:43;5.93;;;5.37;;
11568;SDS011;5840;46.894;15.542;2023-09-19T05:37:09;6.97;;;4.87;;
11568;SDS011;5840;46.894;15.542;2023-09-19T05:39:36;4.80;;;4.40;;
11568;SDS011;5840;46.894;15.542;2023-09-19T05:42:03;4.80;;;4.40;;
11568;SDS011;5840;46.894;15.542;2023-09-19T05:44:33;5.23;;;4.80;;
11568;SDS011;5840;46.894;15.542;2023-09-19T05:47:02;4.33;;;4.03;;
11568;SDS011;5840;46.894;15.542;2023-09-19T05:49:29;4.13;;;3.87;;
11568;SDS011;5840;46.894;15.542;2023-09-19T05:51:56;5.03;;;3.57;;
11568;SDS011;5840;46.894;15.542;2023-09-19T05:54:24;3.77;;;3.30;;
11568;SDS011;5840;46.894;15.542;2023-09-19T05:56:51;3.90;;;3.40;;
11568;SDS011;5840;46.894;15.542;2023-09-19T05:59:18;4.63;;;4.23;;
11568;SDS011;5840;46.894;15.542;2023-09-19T06:01:45;3.43;;;3.23;;
11568;SDS011;5840;46.894;15.542;2023-09-19T06:04:13;4.00;;;3.10;;
11568;SDS011;5840;46.894;15.542;2023-09-19T06:06:40;3.20;;;3.00;;
11568;SDS011;5840;46.894;15.542;2023-09-19T06:09:08;4.20;;;3.40;;
11568;SDS011;5840;46.894;15.542;2023-09-19T06:11:35;4.07;;;3.13;;
11568;SDS011;5840;46.894;15.542;2023-09-19T06:14:02;3.30;;;3.00;;
11568;SDS011;5840;46.894;15.542;2023-09-19T06:16:29;3.97;;;3.27;;
11568;SDS011;5840;46.894;15.542;2023-09-19T06:18:57;3.60;;;3.30;;
11568;SDS011;5840;46.894;15.542;2023-09-19T06:21:26;3.37;;;3.07;;
11568;SDS011;5840;46.894;15.542;2023-09-19T06:23:53;3.77;;;3.23;;
11568;SDS011;5840;46.894;15.542;2023-09-19T06:26:25;4.30;;;3.97;;
11568;SDS011;5840;46.894;15.542;2023-09-19T06:28:54;4.90;;;4.50;;
11568;SDS011;5840;46.894;15.542;2023-09-19T06:31:22;7.30;;;5.77;;
11568;SDS011;5840;46.894;15.542;2023-09-19T06:33:51;7.33;;;5.57;;
11568;SDS011;5840;46.894;15.542;2023-09-19T06:36:18;6.07;;;5.47;;
11568;SDS011;5840;46.894;15.542;2023-09-19T06:38:47;5.97;;;5.37;;
11568;SDS011;5840;46.894;15.542;2023-09-19T06:41:16;6.53;;;5.93;;
11568;SDS011;5840;46.894;15.542;2023-09-19T06:43:44;5.47;;;5.07;;
11568;SDS011;5840;46.894;15.542;2023-09-19T06:46:11;5.27;;;4.77;;
11568;SDS011;5840;46.894;15.542;2023-09-19T06:48:39;4.73;;;4.30;;
11568;SDS011;5840;46.894;15.542;2023-09-19T06:51:06;5.57;;;4.10;;
11568;SDS011;5840;46.894;15.542;2023-09-19T06:53:35;7.20;;;5.17;;
11568;SDS011;5840;46.894;15.542;2023-09-19T06:56:03;5.60;;;5.10;;
11568;SDS011;5840;46.894;15.542;2023-09-19T06:58:31;5.77;;;5.30;;
11568;SDS011;5840;46.894;15.542;2023-09-19T07:00:58;5.07;;;4.57;;
11568;SDS011;5840;46.894;15.542;2023-09-19T07:03:25;6.00;;;4.80;;
11568;SDS011;5840;46.894;15.542;2023-09-19T07:05:53;5.90;;;5.40;;
11568;SDS011;5840;46.894;15.542;2023-09-19T07:08:21;5.50;;;4.80;;
11568;SDS011;5840;46.894;15.542;2023-09-19T07:10:48;5.23;;;4.57;;
11568;SDS011;5840;46.894;15.542;2023-09-19T07:13:19;5.67;;;4.67;;
11568;SDS011;5840;46.894;15.542;2023-09-19T07:15:46;4.33;;;3.93;;
11568;SDS011;5840;46.894;15.542;2023-09-19T07:18:13;3.87;;;3.53;;
11568;SDS011;5840;46.894;15.542;2023-09-19T07:20:41;4.37;;;3.97;;
11568;SDS011;5840;46.894;15.542;2023-09-19T07:23:14;4.20;;;3.80;;
11568;SDS011;5840;46.894;15.542;2023-09-19T07:25:41;6.07;;;4.67;;
11568;SDS011;5840;46.894;15.542;2023-09-19T07:28:08;5.10;;;4.70;;
11568;SDS011;5840;46.894;15.542;2023-09-19T07:30:37;4.80;;;4.40;;
11568;SDS011;5840;46.894;15.542;2023-09-19T07:33:05;6.03;;;5.00;;
11568;SDS011;5840;46.894;15.542;2023-09-19T07:35:32;8.53;;;5.90;;
11568;SDS011;5840;46.894;15.542;2023-09-19T07:37:59;6.60;;;5.87;;
11568;SDS011;5840;46.894;15.542;2023-09-19T07:40:27;8.33;;;5.83;;
11568;SDS011;5840;46.894;15.542;2023-09-19T07:42:55;8.00;;;6.33;;
11568;SDS011;5840;46.894;15.542;2023-09-19T07:45:22;8.67;;;7.00;;
11568;SDS011;5840;46.894;15.542;2023-09-19T07:47:51;8.37;;;6.17;;
11568;SDS011;5840;46.894;15.542;2023-09-19T07:50:19;5.57;;;5.07;;
11568;SDS011;5840;46.894;15.542;2023-09-19T07:52:46;5.87;;;5.37;;
11568;SDS011;5840;46.894;15.542;2023-09-19T07:55:15;6.13;;;5.37;;
11568;SDS011;5840;46.894;15.542;2023-09-19T07:57:44;6.53;;;5.17;;
11568;SDS011;5840;46.894;15.542;2023-09-19T08:00:12;6.43;;;4.53;;
11568;SDS011;5840;46.894;15.542;2023-09-19T08:02:40;5.40;;;4.90;;
11568;SDS011;5840;46.894;15.542;2023-09-19T08:05:09;4.50;;;4.10;;
11568;SDS011;5840;46.894;15.542;2023-09-19T08:07:40;4.23;;;3.83;;
11568;SDS011;5840;46.894;15.542;2023-09-19T08:10:09;4.10;;;3.70;;
11568;SDS011;5840;46.894;15.542;2023-09-19T08:12:38;3.73;;;3.43;;
11568;SDS011;5840;46.894;15.542;2023-09-19T08:15:11;5.50;;;2.90;;
11568;SDS011;5840;46.894;15.542;2023-09-19T08:17:38;3.93;;;3.37;;
11568;SDS011;5840;46.894;15.542;2023-09-19T08:20:06;3.87;;;3.03;;
11568;SDS011;5840;46.894;15.542;2023-09-19T08:22:41;3.40;;;3.13;;
11568;SDS011;5840;46.894;15.542;2023-09-19T08:25:14;3.57;;;3.27;;
11568;SDS011;5840;46.894;15.542;2023-09-19T08:27:43;3.33;;;2.70;;
11568;SDS011;5840;46.894;15.542;2023-09-19T08:30:13;3.13;;;2.83;;
11568;SDS011;5840;46.894;15.542;2023-09-19T08:32:41;3.57;;;2.80;;
11568;SDS011;5840;46.894;15.542;2023-09-19T08:35:10;3.30;;;2.77;;
11568;SDS011;5840;46.894;15.542;2023-09-19T08:37:37;3.93;;;2.97;;
11568;SDS011;5840;46.894;15.542;2023-09-19T08:40:04;3.47;;;3.17;;
11568;SDS011;5840;46.894;15.542;2023-09-19T08:42:46;3.40;;;2.77;;
11568;SDS011;5840;46.894;15.542;2023-09-19T08:45:14;2.90;;;2.70;;
11568;SDS011;5840;46.894;15.542;2023-09-19T08:47:44;3.17;;;2.80;;
11568;SDS011;5840;46.894;15.542;2023-09-19T08:50:17;4.33;;;2.50;;
11568;SDS011;5840;46.894;15.542;2023-09-19T08:52:48;4.70;;;2.53;;
11568;SDS011;5840;46.894;15.542;2023-09-19T08:55:19;3.07;;;2.27;;
11568;SDS011;5840;46.894;15.542;2023-09-19T08:57:52;2.37;;;2.17;;
11568;SDS011;5840;46.894;15.542;2023-09-19T09:00:27;2.30;;;1.87;;
11568;SDS011;5840;46.894;15.542;2023-09-19T09:02:55;2.47;;;2.20;;
11568;SDS011;5840;46.894;15.542;2023-09-19T09:05:24;4.20;;;2.73;;
11568;SDS011;5840;46.894;15.542;2023-09-19T09:07:53;3.07;;;2.20;;
11568;SDS011;5840;46.894;15.542;2023-09-19T09:10:21;3.83;;;2.10;;
11568;SDS011;5840;46.894;15.542;2023-09-19T09:12:48;2.50;;;1.63;;
11568;SDS011;5840;46.894;15.542;2023-09-19T09:15:19;1.60;;;1.50;;
11568;SDS011;5840;46.894;15.542;2023-09-19T09:17:48;1.60;;;1.50;;
11568;SDS011;5840;46.894;15.542;2023-09-19T09:20:16;1.70;;;1.60;;
11568;SDS011;5840;46.894;15.542;2023-09-19T09:22:54;1.97;;;1.40;;
11568;SDS011;5840;46.894;15.542;2023-09-19T09:25:25;2.03;;;1.83;;
11568;SDS011;5840;46.894;15.542;2023-09-19T09:28:19;2.90;;;2.10;;
11568;SDS011;5840;46.894;15.542;2023-09-19T09:30:47;2.43;;;1.63;;
11568;SDS011;5840;46.894;15.542;2023-09-19T09:33:15;1.97;;;1.87;;
11568;SDS011;5840;46.894;15.542;2023-09-19T09:35:49;2.17;;;1.47;;
11568;SDS011;5840;46.894;15.542;2023-09-19T09:38:19;2.23;;;2.03;;
11568;SDS011;5840;46.894;15.542;2023-09-19T09:40:51;1.70;;;1.60;;
11568;SDS011;5840;46.894;15.542;2023-09-19T09:43:30;2.00;;;1.90;;
11568;SDS011;5840;46.894;15.542;2023-09-19T09:46:13;1.80;;;1.70;;
11568;SDS011;5840;46.894;15.542;2023-09-19T09:49:00;2.70;;;1.70;;
11568;SDS011;5840;46.894;15.542;2023-09-19T09:51:45;1.53;;;1.43;;
11568;SDS011;5840;46.894;15.542;2023-09-19T09:54:24;2.10;;;1.80;;
11568;SDS011;5840;46.894;15.542;2023-09-19T09:56:53;1.57;;;1.47;;
11568;SDS011;5840;46.894;15.542;2023-09-19T10:02:21;2.33;;;1.80;;
11568;SDS011;5840;46.894;15.542;2023-09-19T10:04:54;3.70;;;1.73;;
11568;SDS011;5840;46.894;15.542;2023-09-19T10:07:40;2.47;;;1.70;;
11568;SDS011;5840;46.894;15.542;2023-09-19T10:10:14;3.00;;;2.03;;
11568;SDS011;5840;46.894;15.542;2023-09-19T10:13:03;2.67;;;1.97;;
11568;SDS011;5840;46.894;15.542;2023-09-19T10:15:33;1.73;;;1.63;;
11568;SDS011;5840;46.894;15.542;2023-09-19T10:18:01;1.90;;;1.80;;
11568;SDS011;5840;46.894;15.542;2023-09-19T10:20:33;2.70;;;1.70;;
11568;SDS011;5840;46.894;15.542;2023-09-19T10:23:05;2.27;;;1.70;;
11568;SDS011;5840;46.894;15.542;2023-09-19T10:25:38;2.50;;;2.07;;
11568;SDS011;5840;46.894;15.542;2023-09-19T10:28:06;2.10;;;1.90;;
11568;SDS011;5840;46.894;15.542;2023-09-19T10:30:37;3.53;;;2.10;;
11568;SDS011;5840;46.894;15.542;2023-09-19T10:33:09;2.43;;;1.80;;
11568;SDS011;5840;46.894;15.542;2023-09-19T10:35:38;3.13;;;2.17;;
11568;SDS011;5840;46.894;15.542;2023-09-19T10:38:06;2.50;;;1.90;;
11568;SDS011;5840;46.894;15.542;2023-09-19T10:40:37;2.47;;;1.90;;
11568;SDS011;5840;46.894;15.542;2023-09-19T10:43:11;1.90;;;1.80;;
11568;SDS011;5840;46.894;15.542;2023-09-19T10:45:39;2.70;;;1.90;;
11568;SDS011;5840;46.894;15.542;2023-09-19T10:48:08;1.83;;;1.70;;
11568;SDS011;5840;46.894;15.542;2023-09-19T10:50:36;2.67;;;1.87;;
11568;SDS011;5840;46.894;15.542;2023-09-19T10:53:10;1.67;;;1.60;;
11568;SDS011;5840;46.894;15.542;2023-09-19T10:55:40;2.20;;;1.87;;
11568;SDS011;5840;46.894;15.542;2023-09-19T10:58:08;3.27;;;2.03;;
11568;SDS011;5840;46.894;15.542;2023-09-19T11:03:26;1.80;;;1.70;;
11568;SDS011;5840;46.894;15.542;2023-09-19T11:06:06;3.00;;;2.00;;
11568;SDS011;5840;46.894;15.542;2023-09-19T11:08:51;2.13;;;1.73;;
11568;SDS011;5840;46.894;15.542;2023-09-19T11:11:41;2.23;;;2.00;;
11568;SDS011;5840;46.894;15.542;2023-09-19T11:14:14;2.17;;;1.97;;
11568;SDS011;5840;46.894;15.542;2023-09-19T11:20:24;1.80;;;1.70;;
11568;SDS011;5840;46.894;15.542;2023-09-19T11:23:19;2.17;;;2.03;;
11568;SDS011;5840;46.894;15.542;2023-09-19T11:25:52;1.77;;;1.67;;
11568;SDS011;5840;46.894;15.542;2023-09-19T11:28:31;2.83;;;2.07;;
11568;SDS011;5840;46.894;15.542;2023-09-19T11:40:36;2.73;;;2.00;;
11568;SDS011;5840;46.894;15.542;2023-09-19T11:46:09;3.77;;;2.00;;
11568;SDS011;5840;46.894;15.542;2023-09-19T11:48:39;2.00;;;1.90;;
11568;SDS011;5840;46.894;15.542;2023-09-19T11:51:14;2.37;;;1.77;;
11568;SDS011;5840;46.894;15.542;2023-09-19T11:53:47;1.93;;;1.83;;
11568;SDS011;5840;46.894;15.542;2023-09-19T11:56:14;4.43;;;1.90;;
11568;SDS011;5840;46.894;15.542;2023-09-19T11:58:43;2.27;;;1.80;;
11568;SDS011;5840;46.894;15.542;2023-09-19T12:01:13;1.83;;;1.70;;
11568;SDS011;5840;46.894;15.542;2023-09-19T12:03:46;2.13;;;1.90;;
11568;SDS011;5840;46.894;15.542;2023-09-19T12:06:16;2.80;;;2.00;;
11568;SDS011;5840;46.894;15.542;2023-09-19T12:08:43;1.90;;;1.80;;
11568;SDS011;5840;46.894;15.542;2023-09-19T12:11:12;2.67;;;2.20;;
11568;SDS011;5840;46.894;15.542;2023-09-19T12:13:42;2.03;;;1.93;;
11568;SDS011;5840;46.894;15.542;2023-09-19T12:16:15;3.83;;;1.90;;
11568;SDS011;5840;46.894;15.542;2023-09-19T12:18:47;2.17;;;1.97;;
11568;SDS011;5840;46.894;15.542;2023-09-19T12:21:22;1.80;;;1.70;;
11568;SDS011;5840;46.894;15.542;2023-09-19T12:23:58;2.10;;;1.90;;
11568;SDS011;5840;46.894;15.542;2023-09-19T12:26:30;3.13;;;2.00;;
11568;SDS011;5840;46.894;15.542;2023-09-19T12:29:04;2.27;;;2.00;;
11568;SDS011;5840;46.894;15.542;2023-09-19T12:31:34;2.27;;;2.17;;
11568;SDS011;5840;46.894;15.542;2023-09-19T12:34:02;1.83;;;1.70;;
11568;SDS011;5840;46.894;15.542;2023-09-19T12:36:29;2.23;;;1.80;;
11568;SDS011;5840;46.894;15.542;2023-09-19T12:38:59;2.43;;;2.07;;
11568;SDS011;5840;46.894;15.542;2023-09-19T12:41:33;2.70;;;2.03;;
11568;SDS011;5840;46.894;15.542;2023-09-19T12:44:00;2.43;;;2.07;;
11568;SDS011;5840;46.894;15.542;2023-09-19T12:46:31;2.90;;;1.87;;
11568;SDS011;5840;46.894;15.542;2023-09-19T12:49:16;2.83;;;1.73;;
11568;SDS011;5840;46.894;15.542;2023-09-19T12:51:44;2.13;;;1.93;;
11568;SDS011;5840;46.894;15.542;2023-09-19T12:54:12;1.80;;;1.67;;
11568;SDS011;5840;46.894;15.542;2023-09-19T12:56:41;1.73;;;1.63;;
11568;SDS011;5840;46.894;15.542;2023-09-19T12:59:11;1.80;;;1.70;;
11568;SDS011;5840;46.894;15.542;2023-09-19T13:01:41;1.57;;;1.50;;
11568;SDS011;5840;46.894;15.542;2023-09-19T13:04:12;1.70;;;1.43;;
11568;SDS011;5840;46.894;15.542;2023-09-19T13:06:43;1.80;;;1.70;;
11568;SDS011;5840;46.894;15.542;2023-09-19T13:09:11;1.87;;;1.77;;
11568;SDS011;5840;46.894;15.542;2023-09-19T13:11:39;2.00;;;1.80;;
11568;SDS011;5840;46.894;15.542;2023-09-19T13:14:19;1.47;;;1.40;;
11568;SDS011;5840;46.894;15.542;2023-09-19T13:16:58;2.53;;;1.97;;
11568;SDS011;5840;46.894;15.542;2023-09-19T13:19:37;2.27;;;2.07;;
11568;SDS011;5840;46.894;15.542;2023-09-19T13:25:03;1.50;;;1.50;;
11568;SDS011;5840;46.894;15.542;2023-09-19T13:27:31;2.10;;;1.80;;
11568;SDS011;5840;46.894;15.542;2023-09-19T13:29:58;2.10;;;1.80;;
11568;SDS011;5840;46.894;15.542;2023-09-19T13:32:27;1.90;;;1.80;;
11568;SDS011;5840;46.894;15.542;2023-09-19T13:34:53;1.40;;;1.30;;
11568;SDS011;5840;46.894;15.542;2023-09-19T13:37:20;2.07;;;1.70;;
11568;SDS011;5840;46.894;15.542;2023-09-19T13:39:48;2.13;;;1.80;;
11568;SDS011;5840;46.894;15.542;2023-09-19T13:42:14;1.90;;;1.70;;
11568;SDS011;5840;46.894;15.542;2023-09-19T13:44:43;1.60;;;1.50;;
11568;SDS011;5840;46.894;15.542;2023-09-19T13:47:10;1.87;;;1.77;;
11568;SDS011;5840;46.894;15.542;2023-09-19T13:49:40;1.93;;;1.83;;
11568;SDS011;5840;46.894;15.542;2023-09-19T13:52:08;3.10;;;1.70;;
11568;SDS011;5840;46.894;15.542;2023-09-19T13:54:35;2.20;;;1.87;;
11568;SDS011;5840;46.894;15.542;2023-09-19T13:57:02;2.07;;;1.87;;
11568;SDS011;5840;46.894;15.542;2023-09-19T13:59:30;2.20;;;2.00;;
11568;SDS011;5840;46.894;15.542;2023-09-19T14:01:57;2.10;;;1.90;;
11568;SDS011;5840;46.894;15.542;2023-09-19T14:04:24;2.30;;;2.10;;
11568;SDS011;5840;46.894;15.542;2023-09-19T14:06:52;1.73;;;1.60;;
11568;SDS011;5840;46.894;15.542;2023-09-19T14:09:19;1.90;;;1.43;;
11568;SDS011;5840;46.894;15.542;2023-09-19T14:11:47;2.03;;;1.77;;
11568;SDS011;5840;46.894;15.542;2023-09-19T14:14:14;2.33;;;2.07;;
11568;SDS011;5840;46.894;15.542;2023-09-19T14:16:41;4.83;;;2.23;;
11568;SDS011;5840;46.894;15.542;2023-09-19T14:19:08;1.70;;;1.60;;
11568;SDS011;5840;46.894;15.542;2023-09-19T14:21:35;1.97;;;1.87;;
11568;SDS011;5840;46.894;15.542;2023-09-19T14:24:05;1.77;;;1.67;;
11568;SDS011;5840;46.894;15.542;2023-09-19T14:26:34;1.87;;;1.77;;
11568;SDS011;5840;46.894;15.542;2023-09-19T14:29:01;2.03;;;1.90;;
11568;SDS011;5840;46.894;15.542;2023-09-19T14:31:28;2.13;;;1.90;;
11568;SDS011;5840;46.894;15.542;2023-09-19T14:33:55;2.40;;;1.90;;
11568;SDS011;5840;46.894;15.542;2023-09-19T14:36:22;2.13;;;1.93;;
11568;SDS011;5840;46.894;15.542;2023-09-19T14:38:51;2.70;;;1.90;;
11568;SDS011;5840;46.894;15.542;2023-09-19T14:41:21;2.03;;;1.93;;
11568;SDS011;5840;46.894;15.542;2023-09-19T14:43:51;2.23;;;2.03;;
11568;SDS011;5840;46.894;15.542;2023-09-19T14:46:20;2.17;;;1.70;;
11568;SDS011;5840;46.894;15.542;2023-09-19T14:48:49;2.30;;;2.10;;
11568;SDS011;5840;46.894;15.542;2023-09-19T14:51:17;3.83;;;2.47;;
11568;SDS011;5840;46.894;15.542;2023-09-19T14:53:45;2.23;;;2.00;;
11568;SDS011;5840;46.894;15.542;2023-09-19T14:56:12;2.00;;;1.90;;
11568;SDS011;5840;46.894;15.542;2023-09-19T14:58:45;2.57;;;2.00;;
11568;SDS011;5840;46.894;15.542;2023-09-19T15:01:14;2.00;;;1.77;;
11568;SDS011;5840;46.894;15.542;2023-09-19T15:03:42;2.10;;;1.90;;
11568;SDS011;5840;46.894;15.542;2023-09-19T15:06:10;2.10;;;1.90;;
11568;SDS011;5840;46.894;15.542;2023-09-19T15:08:40;1.80;;;1.70;;
11568;SDS011;5840;46.894;15.542;2023-09-19T15:11:11;2.93;;;2.10;;
11568;SDS011;5840;46.894;15.542;2023-09-19T15:13:41;1.77;;;1.67;;
11568;SDS011;5840;46.894;15.542;2023-09-19T15:16:12;2.40;;;2.20;;
11568;SDS011;5840;46.894;15.542;2023-09-19T15:18:42;2.00;;;1.90;;
11568;SDS011;5840;46.894;15.542;2023-09-19T15:21:13;2.23;;;2.03;;
11568;SDS011;5840;46.894;15.542;2023-09-19T15:23:42;2.67;;;1.90;;
11568;SDS011;5840;46.894;15.542;2023-09-19T15:26:12;2.63;;;2.10;;